createdAt,value
2023-01-30T00:01:48.549Z,100956.84
2023-01-30T00:04:51.607Z,100953.00
2023-01-30T00:07:54.305Z,100947.91
2023-01-30T00:10:57.332Z,100942.09
2023-01-30T00:14:01.653Z,100947.50
2023-01-30T00:17:04.726Z,100952.78
2023-01-30T00:20:07.771Z,100949.44
2023-01-30T00:23:10.781Z,100943.09
2023-01-30T00:26:14.229Z,100952.78
2023-01-30T00:29:18.137Z,100944.09
2023-01-30T00:32:20.841Z,100943.19
2023-01-30T00:35:28.835Z,100938.69
2023-01-30T00:38:31.698Z,100934.19
2023-01-30T00:41:53.135Z,100942.91
2023-01-30T00:45:14.176Z,100933.91
2023-01-30T00:48:17.264Z,100929.22
2023-01-30T00:51:20.001Z,100929.19
2023-01-30T00:54:23.618Z,100924.09
2023-01-30T00:57:27.222Z,100929.19
2023-01-30T01:00:30.938Z,100925.94
2023-01-30T01:03:33.623Z,100920.66
2023-01-30T01:06:37.648Z,100917.47
2023-01-30T01:09:40.843Z,100915.94
2023-01-30T01:12:44.942Z,100914.78
2023-01-30T01:15:47.606Z,100918.75
2023-01-30T01:18:51.586Z,100911.03
2023-01-30T01:21:54.502Z,100908.31
2023-01-30T01:24:57.533Z,100901.25
2023-01-30T01:28:00.267Z,100897.06
2023-01-30T01:31:14.030Z,100902.59
2023-01-30T01:34:16.910Z,100885.03
2023-01-30T01:37:20.148Z,100875.59
2023-01-30T01:40:41.994Z,100870.00
2023-01-30T01:44:00.045Z,100862.81
2023-01-30T01:47:03.161Z,100856.22
2023-01-30T01:50:12.416Z,100854.88
2023-01-30T01:53:19.376Z,100849.47
2023-01-30T01:56:24.066Z,100844.69
2023-01-30T01:59:33.098Z,100832.25
2023-01-30T02:02:36.354Z,100835.81
2023-01-30T02:05:45.339Z,100830.63
2023-01-30T02:08:53.634Z,100831.72
2023-01-30T02:12:02.079Z,100829.19
2023-01-30T02:15:06.146Z,100828.38
2023-01-30T02:18:09.650Z,100820.03
2023-01-30T02:21:21.204Z,100814.53
2023-01-30T02:24:33.379Z,100815.25
2023-01-30T02:28:04.726Z,100799.47
2023-01-30T02:31:35.543Z,100799.06
2023-01-30T02:34:59.964Z,100794.75
2023-01-30T02:38:27.525Z,100802.44
2023-01-30T02:41:40.991Z,100791.62
2023-01-30T02:45:10.068Z,100783.63
2023-01-30T02:48:30.798Z,100784.88
2023-01-30T02:51:39.271Z,100782.13
2023-01-30T02:54:42.081Z,100769.09
2023-01-30T02:57:45.489Z,100768.63
2023-01-30T03:01:12.297Z,100769.69
2023-01-30T03:04:35.881Z,100762.22
2023-01-30T03:07:51.102Z,100759.47
2023-01-30T03:11:02.376Z,100759.63
2023-01-30T03:14:26.975Z,100767.53
2023-01-30T03:17:33.195Z,100750.22
2023-01-30T03:20:40.887Z,100749.53
2023-01-30T03:23:46.987Z,100731.97
2023-01-30T03:27:02.563Z,100739.59
2023-01-30T03:30:06.444Z,100731.75
2023-01-30T03:33:09.197Z,100730.28
2023-01-30T03:36:12.759Z,100730.56
2023-01-30T03:39:15.963Z,100730.19
2023-01-30T03:42:19.406Z,100731.31
2023-01-30T03:45:22.182Z,100724.78
2023-01-30T03:48:25.260Z,100718.03
2023-01-30T03:51:29.419Z,100723.62
2023-01-30T03:54:33.043Z,100713.12
2023-01-30T03:57:35.911Z,100725.66
2023-01-30T04:00:39.032Z,100721.16
2023-01-30T04:03:43.025Z,100721.75
2023-01-30T04:06:45.833Z,100718.53
2023-01-30T04:09:48.938Z,100715.66
2023-01-30T04:12:53.080Z,100706.22
2023-01-30T04:16:16.947Z,100708.09
2023-01-30T04:19:23.404Z,100693.38
2023-01-30T04:22:29.084Z,100689.44
2023-01-30T04:25:31.901Z,100684.09
2023-01-30T04:28:36.387Z,100675.53
2023-01-30T04:31:39.508Z,100666.50
2023-01-30T04:34:44.105Z,100671.91
2023-01-30T04:37:47.257Z,100666.19
2023-01-30T04:40:54.146Z,100658.69
2023-01-30T04:43:56.999Z,100674.91
2023-01-30T04:47:00.234Z,100662.44
2023-01-30T04:50:03.884Z,100659.50
2023-01-30T04:53:07.001Z,100659.06
2023-01-30T04:56:09.927Z,100655.53
2023-01-30T04:59:15.372Z,100643.38
2023-01-30T05:02:18.493Z,100646.84
2023-01-30T05:05:26.052Z,100647.37
2023-01-30T05:08:29.088Z,100653.50
2023-01-30T05:11:33.075Z,100651.31
2023-01-30T05:14:35.816Z,100645.22
2023-01-30T05:17:39.068Z,100636.66
2023-01-30T05:20:41.714Z,100642.25
2023-01-30T05:23:45.037Z,100640.66
2023-01-30T05:26:47.937Z,100638.16
2023-01-30T05:29:51.003Z,100633.03
2023-01-30T05:32:53.633Z,100644.91
2023-01-30T05:35:56.828Z,100649.06
2023-01-30T05:38:59.529Z,100643.03
2023-01-30T05:42:03.651Z,100639.75
2023-01-30T05:45:07.002Z,100634.09
2023-01-30T05:48:10.063Z,100638.69
2023-01-30T05:51:24.412Z,100628.38
2023-01-30T05:54:27.501Z,100624.66
2023-01-30T05:57:30.188Z,100625.22
2023-01-30T06:00:33.396Z,100629.50
2023-01-30T06:03:36.700Z,100632.75
2023-01-30T06:06:39.570Z,100631.72
2023-01-30T06:09:42.657Z,100632.66
2023-01-30T06:12:45.334Z,100621.22
2023-01-30T06:15:49.038Z,100616.41
2023-01-30T06:18:51.862Z,100614.38
2023-01-30T06:21:55.085Z,100615.03
2023-01-30T06:24:57.790Z,100613.41
2023-01-30T06:28:00.893Z,100609.31
2023-01-30T06:31:06.571Z,100609.56
2023-01-30T06:34:11.463Z,100618.28
2023-01-30T06:37:14.290Z,100608.00
2023-01-30T06:40:17.815Z,100597.22
2023-01-30T06:43:20.500Z,100589.16
2023-01-30T06:46:23.616Z,100596.28
2023-01-30T06:49:26.721Z,100591.47
2023-01-30T06:52:29.757Z,100597.69
2023-01-30T06:55:36.876Z,100597.59
2023-01-30T06:58:40.250Z,100598.94
2023-01-30T07:01:42.974Z,100599.75
2023-01-30T07:04:46.163Z,100594.84
2023-01-30T07:07:49.031Z,100593.50
2023-01-30T07:10:52.128Z,100598.94
2023-01-30T07:13:54.823Z,100597.06
2023-01-30T07:16:58.041Z,100601.66
2023-01-30T07:20:00.834Z,100600.56
2023-01-30T07:23:04.215Z,100599.50
2023-01-30T07:26:07.238Z,100584.78
2023-01-30T07:29:10.383Z,100587.47
2023-01-30T07:32:20.002Z,100592.06
2023-01-30T07:35:24.999Z,100591.75
2023-01-30T07:38:27.643Z,100598.47
2023-01-30T07:41:31.065Z,100575.31
2023-01-30T07:44:36.539Z,100573.56
2023-01-30T07:47:39.736Z,100569.41
2023-01-30T07:50:43.496Z,100540.31
2023-01-30T07:53:51.725Z,100541.84
2023-01-30T07:56:54.506Z,100534.53
2023-01-30T07:59:57.809Z,100518.97
2023-01-30T08:03:00.626Z,100526.53
2023-01-30T08:06:03.937Z,100524.28
2023-01-30T08:09:07.738Z,100518.84
2023-01-30T08:12:10.799Z,100527.22
2023-01-30T08:15:13.576Z,100509.16
2023-01-30T08:18:16.913Z,100521.31
2023-01-30T08:21:19.628Z,100510.91
2023-01-30T08:24:22.685Z,100510.12
2023-01-30T08:27:25.426Z,100506.00
2023-01-30T08:30:30.667Z,100511.09
2023-01-30T08:33:34.058Z,100510.25
2023-01-30T08:36:37.155Z,100509.31
2023-01-30T08:39:39.863Z,100508.88
2023-01-30T08:42:46.175Z,100504.38
2023-01-30T08:45:49.244Z,100503.25
2023-01-30T08:48:52.305Z,100496.62
2023-01-30T08:51:55.083Z,100498.72
2023-01-30T08:54:58.817Z,100499.53
2023-01-30T08:58:01.975Z,100496.88
2023-01-30T09:01:08.630Z,100482.03
2023-01-30T09:04:11.465Z,100482.91
2023-01-30T09:07:14.504Z,100479.06
2023-01-30T09:10:18.327Z,100481.44
2023-01-30T09:13:21.479Z,100482.31
2023-01-30T09:16:24.260Z,100468.31
2023-01-30T09:19:28.893Z,100479.50
2023-01-30T09:22:31.998Z,100475.66
2023-01-30T09:25:35.169Z,100468.94
2023-01-30T09:28:37.860Z,100458.75
2023-01-30T09:31:41.461Z,100455.44
2023-01-30T09:34:44.197Z,100449.34
2023-01-30T09:37:52.124Z,100450.31
2023-01-30T09:41:01.087Z,100438.13
2023-01-30T09:44:35.247Z,100432.97
2023-01-30T09:48:14.005Z,100426.59
2023-01-30T09:51:36.505Z,100421.84
2023-01-30T09:54:42.915Z,100418.03
2023-01-30T09:57:49.227Z,100420.88
2023-01-30T10:00:55.380Z,100406.09
2023-01-30T10:04:24.425Z,100397.97
2023-01-30T10:07:36.273Z,100407.56
2023-01-30T10:11:10.953Z,100382.97
2023-01-30T10:14:32.068Z,100383.63
2023-01-30T10:17:53.073Z,100390.81
2023-01-30T10:21:31.063Z,100373.47
2023-01-30T10:24:49.693Z,100363.53
2023-01-30T10:28:35.105Z,100348.84
2023-01-30T10:31:47.434Z,100339.63
2023-01-30T10:34:53.766Z,100336.03
2023-01-30T10:37:57.531Z,100326.94
2023-01-30T10:41:13.578Z,100315.13
2023-01-30T10:44:18.736Z,100319.56
2023-01-30T10:47:48.091Z,100295.00
2023-01-30T10:50:59.884Z,100303.94
2023-01-30T10:54:13.599Z,100301.78
2023-01-30T10:57:48.520Z,100280.41
2023-01-30T11:01:01.932Z,100255.66
2023-01-30T11:04:14.523Z,100229.28
2023-01-30T11:07:17.334Z,100210.00
2023-01-30T11:10:24.132Z,100226.28
2023-01-30T11:13:34.011Z,100219.50
2023-01-30T11:16:56.944Z,100221.75
2023-01-30T11:20:06.398Z,100212.88
2023-01-30T11:23:41.596Z,100225.06
2023-01-30T11:26:47.733Z,100213.53
2023-01-30T11:30:04.707Z,100213.53
2023-01-30T11:33:18.528Z,100212.09
2023-01-30T11:36:35.836Z,100203.56
2023-01-30T11:39:50.716Z,100181.88
2023-01-30T11:43:04.027Z,100162.06
2023-01-30T11:46:14.483Z,100140.72
2023-01-30T11:49:47.057Z,100119.22
2023-01-30T11:52:46.857Z,100125.31
2023-01-30T11:56:02.942Z,100120.50
2023-01-30T11:59:37.211Z,100114.06
2023-01-30T12:02:40.576Z,100120.50
2023-01-30T12:05:47.866Z,100094.91
2023-01-30T12:08:55.113Z,100090.09
2023-01-30T12:11:58.862Z,100098.78
2023-01-30T12:15:26.146Z,100094.75
2023-01-30T12:18:35.753Z,100095.75
2023-01-30T12:22:22.083Z,100093.81
2023-01-30T12:25:35.965Z,100069.19
2023-01-30T12:28:47.933Z,100061.78
2023-01-30T12:32:13.527Z,100053.44
2023-01-30T12:35:24.308Z,100053.28
2023-01-30T12:38:51.670Z,100046.66
2023-01-30T12:45:25.699Z,100033.16
2023-01-30T12:48:44.180Z,100029.28
2023-01-30T12:52:13.897Z,100015.75
2023-01-30T12:55:22.791Z,100020.13
2023-01-30T12:58:35.468Z,100020.94
2023-01-30T13:02:02.206Z,100016.44
2023-01-30T13:05:21.632Z,100010.13
2023-01-30T13:09:07.120Z,100016.75
2023-01-30T13:12:24.317Z,100004.66
2023-01-30T13:15:44.288Z,100020.59
2023-01-30T13:18:51.027Z,100009.66
2023-01-30T13:22:19.778Z,100009.34
2023-01-30T13:25:41.491Z,100015.94
2023-01-30T13:28:47.843Z,100012.53
2023-01-30T13:31:55.085Z,100013.81
2023-01-30T13:34:59.701Z,100001.09
2023-01-30T13:38:05.288Z,100023.31
2023-01-30T13:41:12.917Z,99996.13
2023-01-30T13:44:27.976Z,99995.34
2023-01-30T13:47:49.654Z,100000.31
2023-01-30T13:51:10.738Z,99992.44
2023-01-30T13:54:22.650Z,99996.78
2023-01-30T13:58:11.716Z,99993.56
2023-01-30T14:01:15.034Z,100001.44
2023-01-30T14:04:37.071Z,99989.06
2023-01-30T14:07:42.143Z,100000.97
2023-01-30T14:10:45.434Z,99992.59
2023-01-30T14:13:53.881Z,99996.91
2023-01-30T14:17:09.216Z,99995.94
2023-01-30T14:20:17.416Z,100001.25
2023-01-30T14:23:34.512Z,100000.28
2023-01-30T14:27:02.160Z,100007.53
2023-01-30T14:30:34.730Z,100008.84
2023-01-30T14:33:51.692Z,100012.03
2023-01-30T14:36:55.035Z,99999.16
2023-01-30T14:40:00.007Z,100004.16
2023-01-30T14:43:12.272Z,100004.47
2023-01-30T14:46:18.102Z,100012.84
2023-01-30T14:49:28.417Z,100014.16
2023-01-30T14:52:39.197Z,100027.06
2023-01-30T14:55:42.450Z,100029.44
2023-01-30T14:59:17.215Z,100025.91
2023-01-30T15:02:24.433Z,100020.78
2023-01-30T15:05:39.220Z,100029.94
2023-01-30T15:08:44.677Z,100037.00
2023-01-30T15:11:56.876Z,100048.09
2023-01-30T15:15:21.555Z,100045.66
2023-01-30T15:18:39.169Z,100039.56
2023-01-30T15:21:52.329Z,100049.16
2023-01-30T15:25:26.200Z,100054.78
2023-01-30T15:28:51.041Z,100056.84
2023-01-30T15:32:02.891Z,100050.37
2023-01-30T15:35:11.984Z,100061.97
2023-01-30T15:38:34.709Z,100058.56
2023-01-30T15:41:42.550Z,100043.13
2023-01-30T15:44:45.619Z,100042.66
2023-01-30T15:47:54.967Z,100045.50
2023-01-30T15:51:00.349Z,100043.09
2023-01-30T15:54:10.590Z,100060.09
2023-01-30T15:57:21.052Z,100067.81
2023-01-30T16:00:49.612Z,100063.47
2023-01-30T16:03:53.666Z,100059.44
2023-01-30T16:06:56.429Z,100060.38
2023-01-30T16:10:07.321Z,100057.97
2023-01-30T16:13:10.512Z,100060.38
2023-01-30T16:16:18.925Z,100076.44
2023-01-30T16:19:28.444Z,100068.63
2023-01-30T16:22:35.405Z,100040.22
2023-01-30T16:25:38.583Z,100037.72
2023-01-30T16:28:41.917Z,100050.22
2023-01-30T16:31:47.844Z,100052.16
2023-01-30T16:34:51.525Z,100060.84
2023-01-30T16:37:56.576Z,100062.44
2023-01-30T16:41:01.198Z,100060.66
2023-01-30T16:44:23.304Z,100061.81
2023-01-30T16:47:32.035Z,100069.25
2023-01-30T16:50:35.128Z,100066.84
2023-01-30T16:53:51.543Z,100060.00
2023-01-30T16:56:57.501Z,100068.41
2023-01-30T17:00:03.869Z,100070.91
2023-01-30T17:03:20.900Z,100061.84
2023-01-30T17:06:35.920Z,100060.44
2023-01-30T17:09:47.192Z,100051.38
2023-01-30T17:12:52.909Z,100057.28
2023-01-30T17:16:26.284Z,100054.28
2023-01-30T17:19:29.741Z,100047.88
2023-01-30T17:22:33.356Z,100046.94
2023-01-30T17:25:41.659Z,100040.59
2023-01-30T17:28:48.183Z,100046.91
2023-01-30T17:31:53.585Z,100038.56
2023-01-30T17:34:59.976Z,100054.16
2023-01-30T17:38:05.929Z,100050.91
2023-01-30T17:41:21.167Z,100048.78
2023-01-30T17:44:24.951Z,100053.19
2023-01-30T17:47:29.361Z,100055.75
2023-01-30T17:50:33.739Z,100056.25
2023-01-30T17:53:39.972Z,100058.19
2023-01-30T17:56:48.762Z,100054.34
2023-01-30T17:59:51.769Z,100060.97
2023-01-30T18:02:55.965Z,100058.72
2023-01-30T18:06:00.751Z,100069.03
2023-01-30T18:09:04.943Z,100058.88
2023-01-30T18:12:08.481Z,100068.84
2023-01-30T18:15:16.701Z,100065.31
2023-01-30T18:18:21.312Z,100073.66
2023-01-30T18:21:26.578Z,100072.38
2023-01-30T18:24:30.358Z,100067.69
2023-01-30T18:27:34.429Z,100066.25
2023-01-30T18:30:38.648Z,100069.03
2023-01-30T18:33:45.265Z,100060.97
2023-01-30T18:36:50.055Z,100062.25
2023-01-30T18:39:53.532Z,100054.25
2023-01-30T18:42:59.213Z,100056.97
2023-01-30T18:46:13.015Z,100070.31
2023-01-30T18:49:17.333Z,100071.28
2023-01-30T18:52:21.185Z,100073.41
2023-01-30T18:55:25.889Z,100065.97
2023-01-30T18:58:32.829Z,100061.00
2023-01-30T19:01:42.810Z,100059.38
2023-01-30T19:04:50.402Z,100062.12
2023-01-30T19:07:56.281Z,100043.25
2023-01-30T19:11:30.352Z,100060.78
2023-01-30T19:14:35.608Z,100066.69
2023-01-30T19:17:40.164Z,100071.69
2023-01-30T19:20:45.678Z,100067.66
2023-01-30T19:23:51.714Z,100065.69
2023-01-30T19:26:56.647Z,100055.09
2023-01-30T19:30:01.128Z,100069.25
2023-01-30T19:33:10.757Z,100076.34
2023-01-30T19:36:17.954Z,100065.22
2023-01-30T19:39:22.429Z,100062.34
2023-01-30T19:42:27.922Z,100047.53
2023-01-30T19:45:33.424Z,100054.16
2023-01-30T19:48:39.225Z,100053.34
2023-01-30T19:51:43.936Z,100056.91
2023-01-30T19:54:48.547Z,100055.16
2023-01-30T19:57:54.330Z,100063.34
2023-01-30T20:01:06.480Z,100051.41
2023-01-30T20:04:11.225Z,100059.47
2023-01-30T20:07:20.342Z,100059.78
2023-01-30T20:10:25.735Z,100053.69
2023-01-30T20:13:29.993Z,100052.06
2023-01-30T20:16:36.232Z,100046.94
2023-01-30T20:19:40.107Z,100046.75
2023-01-30T20:22:44.125Z,100043.69
2023-01-30T20:25:48.648Z,100042.72
2023-01-30T20:28:58.958Z,100049.81
2023-01-30T20:32:06.795Z,100040.78
2023-01-30T20:35:11.729Z,100030.97
2023-01-30T20:38:15.908Z,100031.44
2023-01-30T20:41:26.193Z,100029.03
2023-01-30T20:44:30.090Z,100036.91
2023-01-30T20:47:35.309Z,100040.94
2023-01-30T20:50:39.560Z,100043.19
2023-01-30T20:53:51.577Z,100039.12
2023-01-30T20:56:57.248Z,100042.16
2023-01-30T21:00:02.215Z,100047.00
2023-01-30T21:03:05.929Z,100043.13
2023-01-30T21:06:09.911Z,100044.56
2023-01-30T21:09:19.429Z,100064.06
2023-01-30T21:12:24.007Z,100062.47
2023-01-30T21:15:27.662Z,100067.47
2023-01-30T21:18:35.401Z,100066.50
2023-01-30T21:21:42.872Z,100077.59
2023-01-30T21:24:46.941Z,100068.41
2023-01-30T21:27:50.095Z,100063.59
2023-01-30T21:30:54.573Z,100077.31
2023-01-30T21:34:00.316Z,100073.44
2023-01-30T21:37:23.032Z,100073.09
2023-01-30T21:40:44.307Z,100070.69
2023-01-30T21:43:48.886Z,100075.66
2023-01-30T21:46:52.220Z,100080.19
2023-01-30T21:49:55.530Z,100082.75
2023-01-30T21:52:58.387Z,100079.72
2023-01-30T21:56:02.027Z,100085.19
2023-01-30T21:59:05.814Z,100083.25
2023-01-30T22:02:10.482Z,100084.22
2023-01-30T22:05:13.560Z,100096.12
2023-01-30T22:08:16.362Z,100094.69
2023-01-30T22:11:19.730Z,100106.78
2023-01-30T22:14:22.556Z,100095.97
2023-01-30T22:17:25.736Z,100087.06
2023-01-30T22:20:28.514Z,100091.22
2023-01-30T22:23:33.679Z,100094.13
2023-01-30T22:26:36.881Z,100095.75
2023-01-30T22:29:39.946Z,100100.09
2023-01-30T22:32:42.701Z,100098.63
2023-01-30T22:35:51.031Z,100097.34
2023-01-30T22:38:54.292Z,100096.22
2023-01-30T22:41:57.317Z,100102.69
2023-01-30T22:45:00.042Z,100098.66
2023-01-30T22:48:03.259Z,100088.34
2023-01-30T22:51:08.741Z,100089.66
2023-01-30T22:54:16.984Z,100097.87
2023-01-30T22:57:19.759Z,100088.84
2023-01-30T23:00:22.874Z,100090.94
2023-01-30T23:03:25.657Z,100089.50
2023-01-30T23:06:30.256Z,100081.41
2023-01-30T23:09:32.995Z,100089.13
2023-01-30T23:12:54.788Z,100087.00
2023-01-30T23:16:02.060Z,100090.22
2023-01-30T23:19:06.852Z,100088.78
2023-01-30T23:22:09.598Z,100095.53
2023-01-30T23:25:12.549Z,100085.34
2023-01-30T23:28:15.472Z,100087.47
2023-01-30T23:31:21.497Z,100080.66
2023-01-30T23:34:24.655Z,100089.38
2023-01-30T23:37:47.645Z,100074.34
2023-01-30T23:40:50.524Z,100075.81
2023-01-30T23:43:53.839Z,100075.66
2023-01-30T23:46:56.560Z,100073.88
2023-01-30T23:49:59.516Z,100082.91
2023-01-30T23:53:02.221Z,100076.62
2023-01-30T23:56:06.727Z,100074.34
2023-01-30T23:59:09.964Z,100072.59
